Time;durP1;ratioP1;P1;durP2;ratioP2;P2;SDS_P1;SDS_P2;PMS_P1;PMS_P2;Temp;Humidity;BMP_temperature;BMP_pressure;BME280_temperature;BME280_humidity;BME280_pressure;Samples;Min_cycle;Max_cycle;Signal;HPM_P1;HPM_P2
2021/05/22 00:02:25;;;;;;;4.93;2.45;;;;;;;13.29;68.46;99218.78;5101736;28;20023;-76
2021/05/22 00:04:51;;;;;;;5.03;2.63;;;;;;;13.26;68.82;99213.97;5114998;28;20028;-77
2021/05/22 00:07:16;;;;;;;3.45;2.13;;;;;;;13.25;68.68;99214.28;5113453;28;20031;-77
2021/05/22 00:09:42;;;;;;;4.32;2.13;;;;;;;13.21;68.62;99219.44;5115397;28;20453;-77
2021/05/22 00:12:08;;;;;;;5.70;2.53;;;;;;;13.23;68.62;99221.81;5114812;28;20023;-77
2021/05/22 00:14:34;;;;;;;9.00;3.10;;;;;;;13.16;68.25;99216.81;5106230;28;20031;-75
2021/05/22 00:16:59;;;;;;;3.47;2.10;;;;;;;13.16;68.46;99224.06;5110766;28;20031;-76
2021/05/22 00:19:25;;;;;;;2.63;2.17;;;;;;;13.09;68.39;99216.38;5104490;28;20102;-76
2021/05/22 00:21:50;;;;;;;2.08;1.88;;;;;;;13.07;68.21;99221.22;5095752;28;20024;-76
2021/05/22 00:24:15;;;;;;;2.22;2.00;;;;;;;13.00;68.27;99226.13;5094927;28;20031;-76
2021/05/22 00:26:41;;;;;;;4.80;2.35;;;;;;;12.96;68.45;99224.03;5104908;28;20035;-75
2021/05/22 00:29:07;;;;;;;2.72;2.42;;;;;;;12.91;68.46;99223.31;5095826;28;20016;-75
2021/05/22 00:31:33;;;;;;;3.03;2.83;;;;;;;12.90;68.75;99224.38;5108127;28;20023;-75
2021/05/22 00:33:59;;;;;;;2.40;2.20;;;;;;;12.88;68.36;99231.94;5109067;27;20170;-75
2021/05/22 00:36:25;;;;;;;2.58;2.28;;;;;;;12.86;68.68;99232.22;5097193;28;20088;-75
2021/05/22 00:38:50;;;;;;;2.17;2.05;;;;;;;12.86;68.81;99239.47;5114831;28;20027;-75
2021/05/22 00:41:15;;;;;;;2.60;1.90;;;;;;;12.82;68.80;99231.97;5114024;28;20024;-75
2021/05/22 00:43:41;;;;;;;1.77;1.67;;;;;;;12.81;68.57;99245.69;5110001;28;20034;-76
2021/05/22 00:46:06;;;;;;;2.38;1.85;;;;;;;12.76;68.29;99253.81;5111073;28;20103;-75
2021/05/22 00:48:32;;;;;;;3.92;2.00;;;;;;;12.72;68.19;99239.34;5099283;28;20081;-75
2021/05/22 00:50:57;;;;;;;2.00;1.90;;;;;;;12.70;68.42;99241.53;5110728;28;20077;-75
2021/05/22 00:53:23;;;;;;;1.70;1.60;;;;;;;12.65;68.18;99248.53;5113069;28;20023;-74
2021/05/22 00:55:49;;;;;;;2.38;2.17;;;;;;;12.61;67.85;99239.47;5113449;28;20027;-75
2021/05/22 00:58:15;;;;;;;2.30;1.92;;;;;;;12.60;67.81;99239.75;5101885;28;20024;-75
2021/05/22 01:00:46;;;;;;;2.78;2.10;;;;;;;12.57;68.11;99238.44;5103234;28;20024;-74
2021/05/22 01:03:17;;;;;;;2.00;1.83;;;;;;;12.53;67.72;99237.41;5104124;28;20031;-76
2021/05/22 01:05:43;;;;;;;2.65;2.05;;;;;;;12.54;67.65;99239.00;5107610;28;20060;-75
2021/05/22 01:08:21;;;;;;;2.17;1.88;;;;;;;12.51;68.06;99236.88;5113627;28;20054;-75
2021/05/22 01:11:01;;;;;;;1.92;1.83;;;;;;;12.52;68.36;99232.31;5094131;28;20035;-76
2021/05/22 01:13:34;;;;;;;4.18;2.05;;;;;;;12.52;67.49;99241.16;5109684;28;20047;-75
2021/05/22 01:16:00;;;;;;;4.38;4.00;;;;;;;12.49;68.34;99247.88;5110088;28;20062;-76
2021/05/22 01:18:27;;;;;;;3.17;1.90;;;;;;;12.46;68.79;99245.78;5111852;28;20474;-75
2021/05/22 01:20:55;;;;;;;2.05;1.95;;;;;;;12.46;68.43;99247.66;5093791;28;20020;-75
2021/05/22 01:23:24;;;;;;;;;;;;;;;12.48;68.66;99257.00;5100957;28;20071;-75
2021/05/22 01:25:52;;;;;;;2.92;2.05;;;;;;;12.43;68.46;99258.97;5113733;28;19912;-75
2021/05/22 01:28:18;;;;;;;1.53;1.43;;;;;;;12.40;68.53;99251.47;5097792;28;20554;-75
2021/05/22 01:30:47;;;;;;;2.15;1.95;;;;;;;12.36;68.58;99242.41;5110621;28;20633;-74
2021/05/22 01:33:12;;;;;;;;;;;;;;;12.37;69.14;99252.06;5113792;28;20073;-74
2021/05/22 01:35:40;;;;;;;2.00;1.85;;;;;;;12.31;69.12;99249.41;5104464;28;19911;-75
2021/05/22 01:38:07;;;;;;;2.55;2.35;;;;;;;12.32;68.49;99255.56;5110170;28;20027;-75
2021/05/22 01:40:32;;;;;;;2.75;2.25;;;;;;;12.28;68.84;99255.34;5113731;27;20479;-75
2021/05/22 01:42:58;;;;;;;2.58;2.15;;;;;;;12.22;69.01;99242.25;5100730;27;20031;-75
2021/05/22 01:45:32;;;;;;;1.95;1.85;;;;;;;12.20;68.69;99255.16;5109564;28;20032;-74
2021/05/22 01:48:01;;;;;;;2.20;1.85;;;;;;;12.15;68.31;99262.13;5110237;28;20054;-75
2021/05/22 01:50:30;;;;;;;2.40;2.10;;;;;;;12.07;68.80;99264.63;5092893;28;20089;-74
2021/05/22 01:52:58;;;;;;;2.80;2.50;;;;;;;12.03;68.54;99258.22;5091808;28;20425;-75
2021/05/22 01:55:25;;;;;;;2.50;2.20;;;;;;;11.97;68.69;99249.41;5092655;28;20032;-75
2021/05/22 01:57:51;;;;;;;2.28;2.08;;;;;;;11.95;68.41;99247.00;5104106;28;20265;-75
2021/05/22 02:00:17;;;;;;;2.45;2.25;;;;;;;11.93;68.89;99251.81;5110940;28;20024;-75
2021/05/22 02:02:54;;;;;;;2.42;2.22;;;;;;;11.93;68.80;99245.69;5093176;28;20081;-75
2021/05/22 02:05:20;;;;;;;2.20;2.05;;;;;;;11.90;68.76;99247.03;5102035;28;20087;-75
2021/05/22 02:07:48;;;;;;;3.70;2.10;;;;;;;11.91;68.76;99245.94;5113077;28;20031;-75
2021/05/22 02:10:14;;;;;;;2.17;2.08;;;;;;;11.92;68.65;99250.22;5106698;28;20081;-74
2021/05/22 02:12:40;;;;;;;2.30;2.10;;;;;;;11.90;68.63;99247.03;5111647;28;20055;-74
2021/05/22 02:15:09;;;;;;;1.90;1.80;;;;;;;11.90;68.59;99247.03;5111860;28;20059;-75
2021/05/22 02:17:37;;;;;;;5.22;1.95;;;;;;;11.86;69.19;99251.34;5113036;27;20027;-75
2021/05/22 02:20:03;;;;;;;4.22;1.88;;;;;;;11.83;69.00;99241.19;5112459;28;20015;-74
2021/05/22 02:22:32;;;;;;;3.08;1.77;;;;;;;11.87;69.26;99246.81;5108373;28;20035;-74
2021/05/22 02:24:57;;;;;;;;;;;;;;;11.87;68.31;99244.13;5100948;28;20134;-74
2021/05/22 02:27:24;;;;;;;2.22;1.90;;;;;;;11.84;69.01;99240.13;5109895;28;20010;-75
2021/05/22 02:29:50;;;;;;;4.10;2.35;;;;;;;11.81;69.08;99240.66;5112540;28;20023;-75
2021/05/22 02:32:18;;;;;;;6.55;2.35;;;;;;;11.82;69.19;99248.41;5092768;28;20044;-75
2021/05/22 02:34:51;;;;;;;2.30;2.10;;;;;;;11.81;68.79;99246.03;5092604;28;20065;-75
2021/05/22 02:37:19;;;;;;;2.10;1.95;;;;;;;11.79;69.10;99254.34;5091832;28;20072;-74
2021/05/22 02:39:49;;;;;;;4.35;1.70;;;;;;;11.77;69.15;99253.81;5094084;28;20386;-76
2021/05/22 02:42:16;;;;;;;3.55;2.33;;;;;;;11.75;69.20;99252.50;5112355;28;20482;-76
2021/05/22 02:44:45;;;;;;;2.67;2.03;;;;;;;11.74;69.39;99249.00;5111672;28;20050;-75
2021/05/22 02:47:12;;;;;;;2.33;2.13;;;;;;;11.77;69.13;99259.19;5101051;28;20054;-75
2021/05/22 02:49:42;;;;;;;2.33;1.98;;;;;;;11.77;69.57;99256.50;5094843;28;20032;-75
2021/05/22 02:52:10;;;;;;;2.20;2.03;;;;;;;11.75;68.51;99258.66;5102343;28;20024;-75
2021/05/22 02:54:39;;;;;;;2.67;1.80;;;;;;;11.75;68.38;99260.53;5092029;28;20032;-75
2021/05/22 02:57:09;;;;;;;2.83;2.33;;;;;;;11.74;69.03;99248.22;5096883;28;20023;-74
2021/05/22 02:59:36;;;;;;;2.30;2.10;;;;;;;11.74;69.47;99256.25;5110883;28;20028;-75
2021/05/22 03:02:03;;;;;;;2.67;2.47;;;;;;;11.77;68.95;99256.50;5098141;28;20032;-74
2021/05/22 03:04:32;;;;;;;2.92;2.30;;;;;;;11.93;68.75;99253.72;5111926;28;20030;-75
2021/05/22 03:06:59;;;;;;;2.40;2.20;;;;;;;12.19;69.41;99262.38;5110555;28;20026;-76
2021/05/22 03:09:24;;;;;;;4.05;2.20;;;;;;;12.46;68.53;99258.38;5110592;28;20110;-74
2021/05/22 03:11:50;;;;;;;2.47;2.00;;;;;;;12.82;67.46;99264.19;5095288;28;20106;-75
2021/05/22 03:14:15;;;;;;;2.35;2.00;;;;;;;13.21;66.54;99262.41;5108151;28;20057;-75
2021/05/22 03:16:41;;;;;;;1.98;1.77;;;;;;;13.63;65.28;99262.69;5105029;28;20046;-76
2021/05/22 03:19:06;;;;;;;3.08;1.92;;;;;;;14.09;63.73;99258.50;5104703;28;20038;-76
2021/05/22 03:21:32;;;;;;;3.00;2.50;;;;;;;14.62;62.44;99264.59;5106055;28;20522;-75
2021/05/22 03:23:57;;;;;;;1.88;1.77;;;;;;;15.04;60.78;99258.16;5111483;28;20034;-76
2021/05/22 03:26:23;;;;;;;2.38;2.17;;;;;;;15.64;59.26;99274.44;5109142;28;20127;-76
2021/05/22 03:28:48;;;;;;;2.08;1.88;;;;;;;16.14;58.01;99270.88;5109860;28;20024;-76
2021/05/22 03:31:14;;;;;;;2.22;2.08;;;;;;;16.71;56.67;99280.22;5109696;28;20382;-79
2021/05/22 03:33:40;;;;;;;2.50;1.80;;;;;;;17.24;55.03;99284.72;5109884;28;20037;-76
2021/05/22 03:36:06;;;;;;;1.95;1.65;;;;;;;17.75;53.04;99285.09;5110074;28;20475;-76
2021/05/22 03:38:31;;;;;;;1.63;1.52;;;;;;;18.23;51.56;99290.69;5106331;28;20098;-76
2021/05/22 03:40:57;;;;;;;1.50;1.40;;;;;;;18.67;50.29;99299.47;5095855;28;20115;-76
2021/05/22 03:43:22;;;;;;;5.68;1.70;;;;;;;19.10;49.08;99288.81;5096704;28;20027;-75
2021/05/22 03:45:48;;;;;;;3.38;1.80;;;;;;;19.55;47.91;99301.78;5108362;28;20404;-75
2021/05/22 03:48:13;;;;;;;2.45;2.22;;;;;;;20.00;47.07;99303.84;5111047;28;20375;-75
2021/05/22 03:50:39;;;;;;;1.90;1.80;;;;;;;20.48;46.16;99301.66;5097752;28;20034;-75
2021/05/22 03:53:04;;;;;;;2.17;1.98;;;;;;;20.97;44.75;99311.03;5091216;28;20092;-75
2021/05/22 03:55:30;;;;;;;6.20;2.42;;;;;;;21.43;43.50;99313.63;5100119;28;20023;-75
2021/05/22 03:57:55;;;;;;;2.42;1.75;;;;;;;21.85;41.81;99305.16;5095182;28;20028;-75
2021/05/22 04:00:21;;;;;;;2.10;1.90;;;;;;;22.28;40.99;99312.94;5108099;28;20032;-76
2021/05/22 04:02:46;;;;;;;1.55;1.45;;;;;;;22.66;40.65;99308.88;5111188;28;20077;-75
2021/05/22 04:05:12;;;;;;;2.05;1.95;;;;;;;23.02;39.43;99318.75;5100365;28;20016;-76
2021/05/22 04:07:37;;;;;;;1.80;1.70;;;;;;;23.35;38.99;99316.75;5100236;28;20106;-76
2021/05/22 04:10:04;;;;;;;3.47;1.90;;;;;;;23.69;38.40;99306.19;5107769;28;20024;-76
2021/05/22 04:12:30;;;;;;;5.60;2.90;;;;;;;23.99;37.60;99313.88;5105546;28;20027;-75
2021/05/22 04:14:55;;;;;;;5.53;2.63;;;;;;;24.34;37.20;99315.72;5091931;28;20024;-76
2021/05/22 04:17:21;;;;;;;16.63;9.73;;;;;;;24.68;36.54;99324.16;5109813;28;20382;-76
2021/05/22 04:19:46;;;;;;;11.57;7.57;;;;;;;24.92;36.69;99319.44;5102221;28;20027;-75
2021/05/22 04:22:12;;;;;;;10.32;7.55;;;;;;;25.24;35.54;99316.41;5090702;28;20020;-75
2021/05/22 04:24:37;;;;;;;5.15;3.25;;;;;;;25.47;35.34;99321.06;5107091;28;20031;-75
2021/05/22 04:27:03;;;;;;;4.35;2.38;;;;;;;25.84;34.71;99325.84;5108830;28;20475;-76
2021/05/22 04:29:28;;;;;;;4.72;2.70;;;;;;;26.14;34.06;99317.63;5108993;28;20026;-76
2021/05/22 04:31:54;;;;;;;2.65;2.05;;;;;;;26.42;34.01;99323.81;5104193;28;20043;-76
2021/05/22 04:34:19;;;;;;;5.28;2.40;;;;;;;26.67;33.43;99319.34;5109887;28;20050;-77
2021/05/22 04:36:45;;;;;;;4.28;2.67;;;;;;;26.92;33.47;99318.78;5093479;28;20414;-77
2021/05/22 04:39:10;;;;;;;3.90;2.50;;;;;;;27.19;32.87;99324.06;5093294;28;20135;-77
2021/05/22 04:41:36;;;;;;;2.10;1.73;;;;;;;27.41;32.35;99314.03;5104834;28;20480;-77
2021/05/22 04:44:01;;;;;;;2.25;2.05;;;;;;;27.59;31.46;99313.34;5093473;28;20107;-77
2021/05/22 04:46:27;;;;;;;1.70;1.38;;;;;;;27.74;30.96;99320.47;5106475;28;20027;-77
2021/05/22 04:48:54;;;;;;;1.17;1.08;;;;;;;27.83;30.53;99303.66;5109032;28;20022;-76
2021/05/22 04:51:20;;;;;;;1.95;1.83;;;;;;;27.94;30.88;99298.16;5093865;28;20024;-77
2021/05/22 04:53:46;;;;;;;2.80;1.60;;;;;;;28.05;31.41;99290.78;5098571;28;20028;-76
2021/05/22 04:56:11;;;;;;;1.83;1.52;;;;;;;28.19;30.68;99300.25;5108869;27;20031;-77
2021/05/22 04:58:37;;;;;;;3.67;1.98;;;;;;;28.35;30.65;99299.88;5109292;28;20157;-78
2021/05/22 05:01:02;;;;;;;3.47;2.10;;;;;;;28.44;30.38;99305.78;5111518;28;20038;-79
2021/05/22 05:03:28;;;;;;;7.07;2.20;;;;;;;28.56;30.53;99299.13;5093275;28;20535;-80
2021/05/22 05:05:53;;;;;;;2.08;1.45;;;;;;;28.78;29.79;99305.44;5103827;28;20023;-77
2021/05/22 05:08:20;;;;;;;2.72;1.60;;;;;;;28.85;29.99;99305.44;5114052;28;20027;-77
2021/05/22 05:10:49;;;;;;;3.67;1.80;;;;;;;29.14;29.85;99315.63;5114248;28;20122;-77
2021/05/22 05:13:15;;;;;;;3.03;1.77;;;;;;;29.38;28.99;99308.53;5112313;28;20070;-77
2021/05/22 05:15:41;;;;;;;1.52;1.42;;;;;;;29.59;28.86;99310.44;5103327;28;20027;-78
2021/05/22 05:18:07;;;;;;;6.68;1.45;;;;;;;29.72;28.94;99305.28;5100832;28;20596;-76
2021/05/22 05:20:33;;;;;;;2.47;1.52;;;;;;;29.86;28.17;99310.72;5101522;28;21347;-77
2021/05/22 05:22:59;;;;;;;3.42;1.30;;;;;;;30.03;28.26;99309.09;5096416;28;20024;-78
2021/05/22 05:25:24;;;;;;;1.27;1.27;;;;;;;30.08;27.94;99310.66;5092236;28;20085;-77
2021/05/22 05:27:50;;;;;;;1.35;1.25;;;;;;;30.15;28.42;99307.06;5093352;28;20440;-78
2021/05/22 05:30:16;;;;;;;2.15;1.48;;;;;;;30.23;28.37;99311.34;5097684;28;20082;-77
2021/05/22 05:32:42;;;;;;;1.90;1.43;;;;;;;30.23;28.57;99307.81;5093322;28;20103;-78
2021/05/22 05:35:09;;;;;;;1.20;1.17;;;;;;;30.34;28.62;99314.03;5093157;28;20118;-78
2021/05/22 05:37:36;;;;;;;3.53;1.45;;;;;;;30.42;27.35;99321.09;5094008;28;20119;-79
2021/05/22 05:40:02;;;;;;;1.40;1.30;;;;;;;30.48;27.40;99319.47;5095497;28;20024;-78
2021/05/22 05:42:28;;;;;;;2.92;1.45;;;;;;;30.64;26.79;99318.22;5092431;28;20028;-77
2021/05/22 05:44:53;;;;;;;4.63;1.20;;;;;;;30.84;26.79;99326.72;5095344;28;20019;-77
2021/05/22 05:47:19;;;;;;;1.10;1.00;;;;;;;31.01;26.83;99313.94;5103196;28;20467;-77
2021/05/22 05:49:44;;;;;;;1.75;1.20;;;;;;;31.24;26.54;99318.09;5091503;28;20507;-78
2021/05/22 05:52:10;;;;;;;1.55;1.15;;;;;;;31.42;25.67;99328.94;5091417;28;20020;-77
2021/05/22 05:54:35;;;;;;;0.88;0.88;;;;;;;31.60;25.20;99335.06;5090836;28;20023;-76
2021/05/22 05:57:01;;;;;;;3.42;1.55;;;;;;;31.71;25.60;99329.47;5108445;28;20020;-76
2021/05/22 05:59:26;;;;;;;2.25;1.10;;;;;;;31.91;25.25;99339.88;5101989;28;20104;-78
2021/05/22 06:01:52;;;;;;;0.65;0.65;;;;;;;32.06;25.23;99338.47;5104812;28;20457;-80
2021/05/22 06:04:17;;;;;;;1.00;1.00;;;;;;;32.17;24.51;99338.34;5109760;28;20470;-78
2021/05/22 06:06:43;;;;;;;0.95;0.95;;;;;;;32.15;23.88;99346.25;5094072;28;20020;-78
2021/05/22 06:09:08;;;;;;;2.78;1.20;;;;;;;32.12;24.44;99344.34;5107216;28;20630;-76
2021/05/22 06:11:36;;;;;;;2.05;1.20;;;;;;;32.13;24.50;99350.63;5112697;28;20489;-76
2021/05/22 06:14:02;;;;;;;1.95;1.02;;;;;;;32.03;24.71;99344.84;5112952;28;20026;-77
2021/05/22 06:16:34;;;;;;;3.15;1.80;;;;;;;31.96;24.76;99344.94;5095110;28;20387;-77
2021/05/22 06:19:00;;;;;;;1.60;1.15;;;;;;;31.65;24.05;99344.91;5107827;28;20044;-76
2021/05/22 06:21:25;;;;;;;2.83;0.98;;;;;;;31.31;24.89;99353.94;5106122;28;20032;-76
2021/05/22 06:23:51;;;;;;;1.67;1.20;;;;;;;30.89;24.96;99353.88;5094183;28;20494;-74
2021/05/22 06:26:17;;;;;;;1.30;1.10;;;;;;;30.20;25.71;99353.53;5110573;28;20040;-74
2021/05/22 06:28:42;;;;;;;1.00;1.00;;;;;;;29.66;25.43;99354.53;5102967;28;20019;-75
2021/05/22 06:31:08;;;;;;;0.98;0.90;;;;;;;29.27;26.34;99352.59;5106102;28;20019;-75
2021/05/22 06:33:34;;;;;;;1.55;1.27;;;;;;;28.86;26.57;99337.28;5111997;28;20028;-76
2021/05/22 06:36:00;;;;;;;1.05;1.02;;;;;;;28.24;26.54;99341.09;5112189;28;20066;-76
2021/05/22 06:38:25;;;;;;;2.50;1.02;;;;;;;27.78;28.18;99347.97;5112476;28;20028;-75
2021/05/22 06:40:52;;;;;;;1.20;1.10;;;;;;;27.53;29.05;99347.84;5111887;28;20031;-76
2021/05/22 06:43:18;;;;;;;0.70;0.70;;;;;;;27.30;28.84;99346.88;5091686;28;20092;-75
2021/05/22 06:45:45;;;;;;;1.83;1.15;;;;;;;27.08;29.77;99350.66;5097340;28;20023;-75
2021/05/22 06:48:12;;;;;;;1.50;1.40;;;;;;;26.64;32.54;99350.25;5110886;28;20389;-75
2021/05/22 06:50:39;;;;;;;2.05;1.70;;;;;;;26.34;33.17;99353.06;5105370;28;20141;-75
2021/05/22 06:53:06;;;;;;;3.85;1.65;;;;;;;25.91;34.23;99358.81;5111915;28;20019;-75
2021/05/22 06:55:32;;;;;;;1.65;1.38;;;;;;;25.55;34.27;99355.63;5111049;28;20114;-76
2021/05/22 06:57:57;;;;;;;2.10;1.50;;;;;;;25.30;35.17;99356.00;5111828;28;20435;-75
2021/05/22 07:00:23;;;;;;;2.28;1.92;;;;;;;24.97;35.17;99359.38;5111653;28;20032;-76
2021/05/22 07:02:49;;;;;;;2.53;1.90;;;;;;;24.56;36.14;99354.34;5110553;28;20516;-75
2021/05/22 07:05:15;;;;;;;2.58;1.85;;;;;;;24.16;37.15;99356.34;5111427;28;20035;-76
2021/05/22 07:07:42;;;;;;;3.33;1.80;;;;;;;23.77;37.70;99351.63;5111821;28;20034;-77
2021/05/22 07:10:09;;;;;;;6.55;2.17;;;;;;;23.50;39.30;99351.44;5111282;28;20028;-76
2021/05/22 07:12:34;;;;;;;2.45;1.92;;;;;;;23.27;39.43;99354.03;5109192;28;20493;-77
2021/05/22 07:15:00;;;;;;;3.90;2.67;;;;;;;23.10;40.75;99354.38;5110503;28;20032;-75
2021/05/22 07:17:26;;;;;;;3.42;2.20;;;;;;;22.93;39.91;99348.13;5110150;28;20562;-75
2021/05/22 07:19:51;;;;;;;4.18;2.00;;;;;;;22.83;40.35;99346.69;5098031;28;20055;-75
2021/05/22 07:22:17;;;;;;;2.03;1.88;;;;;;;22.77;40.67;99339.16;5111322;28;20013;-76
2021/05/22 07:24:42;;;;;;;2.47;2.28;;;;;;;22.72;40.40;99337.47;5110266;28;20478;-76
2021/05/22 07:27:08;;;;;;;2.63;2.42;;;;;;;22.64;40.39;99338.44;5111773;28;20466;-76
2021/05/22 07:29:34;;;;;;;2.30;2.10;;;;;;;22.54;40.26;99337.81;5111836;28;20022;-79
2021/05/22 07:32:00;;;;;;;2.25;2.08;;;;;;;22.59;41.57;99341.41;5111745;28;20016;-78
2021/05/22 07:34:25;;;;;;;2.30;2.10;;;;;;;22.58;40.49;99337.09;5109528;28;20118;-77
2021/05/22 07:36:51;;;;;;;2.00;1.90;;;;;;;22.54;41.21;99343.25;5110301;28;20418;-76
2021/05/22 07:39:17;;;;;;;3.92;2.10;;;;;;;22.59;40.15;99341.41;5110360;28;20020;-76
2021/05/22 07:41:43;;;;;;;4.10;2.20;;;;;;;22.66;41.30;99345.09;5102352;28;20103;-83
2021/05/22 07:44:09;;;;;;;4.65;2.35;;;;;;;22.65;41.42;99335.34;5103883;28;20385;-79
2021/05/22 07:46:35;;;;;;;2.92;2.13;;;;;;;22.69;40.66;99333.50;5109739;28;20096;-80
2021/05/22 07:49:00;;;;;;;3.35;3.05;;;;;;;22.77;40.61;99337.19;5090885;28;20421;-79
2021/05/22 07:51:26;;;;;;;2.05;1.75;;;;;;;22.71;41.13;99323.03;5089585;28;20027;-76
2021/05/22 07:53:51;;;;;;;3.22;2.17;;;;;;;22.78;40.08;99336.06;5110381;28;20019;-78
2021/05/22 07:56:17;;;;;;;3.53;1.80;;;;;;;22.81;40.77;99327.19;5110368;28;20050;-78
2021/05/22 07:58:43;;;;;;;2.15;1.95;;;;;;;22.89;40.85;99330.88;5108243;28;20052;-79
2021/05/22 08:01:08;;;;;;;1.50;1.40;;;;;;;22.92;39.20;99326.66;5110071;28;20019;-79
2021/05/22 08:03:34;;;;;;;1.95;1.85;;;;;;;22.97;38.94;99312.75;5109844;28;20011;-78
2021/05/22 08:05:59;;;;;;;4.45;1.98;;;;;;;23.05;39.85;99316.47;5109880;28;20104;-78
2021/05/22 08:08:25;;;;;;;1.55;1.45;;;;;;;23.08;40.10;99315.72;5109767;28;20024;-78
2021/05/22 08:10:50;;;;;;;1.55;1.30;;;;;;;23.12;38.55;99325.59;5110137;28;20025;-78
2021/05/22 08:13:16;;;;;;;3.17;1.30;;;;;;;23.15;39.30;99313.19;5110053;28;20042;-78
2021/05/22 08:15:41;;;;;;;1.13;1.02;;;;;;;23.24;39.19;99322.00;5109817;28;20058;-78
2021/05/22 08:18:07;;;;;;;2.67;1.58;;;;;;;23.31;39.17;99319.44;5109886;28;20501;-78
2021/05/22 08:20:33;;;;;;;2.25;1.30;;;;;;;23.32;39.01;99331.91;5109737;28;20024;-78
2021/05/22 08:22:59;;;;;;;1.17;1.17;;;;;;;23.23;38.85;99322.34;5112774;28;20439;-78
2021/05/22 08:25:24;;;;;;;1.13;1.10;;;;;;;23.25;38.14;99314.59;5113405;28;20064;-78
2021/05/22 08:27:52;;;;;;;1.70;1.60;;;;;;;23.23;38.76;99308.69;5113895;28;20084;-78
2021/05/22 08:30:20;;;;;;;3.00;1.67;;;;;;;23.28;38.60;99316.63;5113836;28;20035;-78
2021/05/22 08:32:46;;;;;;;2.10;1.55;;;;;;;23.23;36.77;99316.88;5113824;28;20071;-78
2021/05/22 08:35:12;;;;;;;1.35;1.25;;;;;;;23.32;38.17;99314.75;5113942;28;20028;-78
2021/05/22 08:37:38;;;;;;;2.42;1.13;;;;;;;23.38;37.56;99320.75;5113155;28;20107;-78
2021/05/22 08:40:04;;;;;;;4.93;1.90;;;;;;;23.45;36.93;99313.50;5113656;28;20145;-78
2021/05/22 08:42:31;;;;;;;1.17;1.17;;;;;;;23.49;37.96;99317.09;5113067;28;20026;-78
2021/05/22 08:45:11;;;;;;;1.63;1.52;;;;;;;23.53;38.05;99321.84;5113501;28;20026;-78
2021/05/22 08:47:37;;;;;;;1.88;1.67;;;;;;;23.53;38.07;99313.66;5113082;28;20604;-77
2021/05/22 08:50:06;;;;;;;1.13;1.13;;;;;;;23.47;37.31;99315.88;5113411;28;20027;-77
2021/05/22 08:52:31;;;;;;;1.75;1.30;;;;;;;23.38;37.79;99320.75;5113015;28;20054;-77
2021/05/22 08:54:57;;;;;;;1.60;1.50;;;;;;;23.27;38.44;99315.81;5113277;28;20047;-78
2021/05/22 08:57:23;;;;;;;1.33;1.30;;;;;;;23.27;38.34;99315.03;5112961;28;20088;-78
2021/05/22 08:59:49;;;;;;;1.40;1.30;;;;;;;23.25;37.24;99318.09;5114833;28;20114;-77
2021/05/22 09:02:24;;;;;;;1.02;1.02;;;;;;;23.17;37.76;99322.63;5113121;28;20388;-77
2021/05/22 09:05:21;;;;;;;4.32;1.80;;;;;;;23.23;39.47;99319.63;5113001;28;20442;-78
2021/05/22 09:07:55;;;;;;;2.20;1.33;;;;;;;23.26;38.45;99310.72;5112866;28;20106;-78
2021/05/22 09:10:27;;;;;;;2.05;1.10;;;;;;;23.25;37.56;99300.97;5112822;28;20162;-77
2021/05/22 09:13:04;;;;;;;1.10;1.00;;;;;;;23.24;37.12;99297.44;5112912;28;20027;-77
2021/05/22 09:15:36;;;;;;;2.22;1.33;;;;;;;23.28;37.38;99287.41;5112541;28;20054;-77
2021/05/22 09:18:05;;;;;;;1.88;1.27;;;;;;;23.30;35.82;99270.66;5112748;28;20023;-78
2021/05/22 09:21:01;;;;;;;1.13;1.05;;;;;;;23.29;36.25;99277.25;5112419;28;20444;-77
2021/05/22 09:23:29;;;;;;;1.58;1.20;;;;;;;23.30;37.39;99265.22;5096157;28;20410;-77
2021/05/22 09:26:01;;;;;;;1.73;1.10;;;;;;;23.36;37.43;99273.91;5112537;28;20506;-79
2021/05/22 09:28:29;;;;;;;1.00;1.00;;;;;;;23.42;37.15;99272.47;5112285;28;20023;-77
2021/05/22 09:30:56;;;;;;;1.58;1.48;;;;;;;23.50;36.80;99274.22;5112672;28;20034;-77
2021/05/22 09:33:28;;;;;;;1.00;1.00;;;;;;;23.58;36.42;99264.25;5112421;28;20016;-77
2021/05/22 09:36:00;;;;;;;2.63;1.25;;;;;;;23.69;36.31;99267.19;5111950;28;20027;-77
2021/05/22 09:38:54;;;;;;;0.90;0.90;;;;;;;23.85;34.81;99270.63;5113185;28;20145;-77
2021/05/22 09:41:20;;;;;;;1.08;1.08;;;;;;;23.90;34.02;99269.56;5109123;28;20402;-79
2021/05/22 09:44:10;;;;;;;1.45;1.30;;;;;;;24.01;34.57;99267.06;5112057;28;20118;-78
2021/05/22 09:46:44;;;;;;;1.05;1.05;;;;;;;24.08;34.36;99262.53;5111983;28;20165;-78
2021/05/22 09:49:11;;;;;;;1.50;1.40;;;;;;;24.06;33.75;99256.63;5112466;28;20036;-78
2021/05/22 09:51:55;;;;;;;1.13;1.02;;;;;;;24.12;33.94;99251.66;5113204;28;20519;-77
2021/05/22 09:54:41;;;;;;;0.93;0.93;;;;;;;24.16;33.59;99246.25;5112233;28;20448;-78
2021/05/22 09:57:07;;;;;;;1.00;0.90;;;;;;;24.14;34.20;99252.09;5112013;28;20042;-78
2021/05/22 09:59:33;;;;;;;1.33;1.20;;;;;;;24.15;34.62;99245.47;5111556;28;20144;-78
2021/05/22 10:01:59;;;;;;;2.28;0.95;;;;;;;24.20;34.17;99249.84;5112142;28;20550;-78
2021/05/22 10:04:25;;;;;;;1.27;1.00;;;;;;;24.20;33.41;99247.13;5111695;28;20031;-77
2021/05/22 10:06:51;;;;;;;0.98;0.98;;;;;;;24.22;33.78;99251.06;5113361;28;20020;-76
2021/05/22 10:09:18;;;;;;;0.85;0.85;;;;;;;24.13;33.21;99247.78;5111747;28;20118;-78
2021/05/22 10:12:03;;;;;;;1.10;1.00;;;;;;;24.08;32.87;99251.63;5111684;28;20034;-78
2021/05/22 10:14:41;;;;;;;0.90;0.90;;;;;;;24.04;32.62;99237.06;5111212;28;20035;-78
2021/05/22 10:17:08;;;;;;;;;;;;;;;24.03;32.79;99246.41;5111846;28;20093;-78
2021/05/22 10:19:36;;;;;;;0.98;0.80;;;;;;;24.04;31.97;99233.56;5111397;28;19904;-78
2021/05/22 10:22:03;;;;;;;1.10;0.80;;;;;;;24.06;32.04;99234.78;5111704;28;20554;-78
2021/05/22 10:24:29;;;;;;;1.42;1.08;;;;;;;24.02;31.33;99224.94;5111156;28;20031;-76
2021/05/22 10:26:56;;;;;;;0.60;0.60;;;;;;;23.99;31.51;99215.53;5110999;28;20035;-77
2021/05/22 10:29:22;;;;;;;0.90;0.90;;;;;;;23.93;31.46;99211.53;5111552;28;20127;-77
2021/05/22 10:31:49;;;;;;;1.98;0.90;;;;;;;23.91;31.50;99208.31;5111322;28;20023;-76
2021/05/22 10:34:19;;;;;;;1.23;0.47;;;;;;;23.96;31.38;99205.31;5111274;28;20035;-77
2021/05/22 10:36:48;;;;;;;0.65;0.65;;;;;;;24.03;31.74;99208.19;5111164;28;20024;-77
2021/05/22 10:39:40;;;;;;;0.65;0.65;;;;;;;24.13;31.65;99204.06;5111092;28;20122;-77
2021/05/22 10:42:08;;;;;;;0.70;0.70;;;;;;;24.18;30.10;99195.59;5111348;28;20051;-76
2021/05/22 10:44:37;;;;;;;;;;;;;;;24.21;30.31;99192.09;5111520;28;20363;-77
2021/05/22 10:47:10;;;;;;;0.80;0.80;;;;;;;24.32;30.56;99196.97;5110217;28;19908;-77
2021/05/22 10:50:04;;;;;;;0.65;0.65;;;;;;;24.42;30.30;99197.13;5110818;28;20034;-78
2021/05/22 10:52:32;;;;;;;1.20;0.75;;;;;;;24.50;29.40;99200.78;5110894;28;20487;-78
2021/05/22 10:55:02;;;;;;;1.48;0.70;;;;;;;24.58;29.87;99199.75;5112224;28;20045;-77
2021/05/22 10:57:29;;;;;;;3.08;0.63;;;;;;;24.51;30.13;99185.97;5110734;28;20090;-77
2021/05/22 11:00:13;;;;;;;0.82;0.77;;;;;;;24.56;29.95;99187.56;5111043;28;20015;-77
2021/05/22 11:02:40;;;;;;;0.50;0.50;;;;;;;24.56;30.30;99185.66;5110474;28;20475;-77
2021/05/22 11:05:21;;;;;;;0.60;0.60;;;;;;;24.59;30.44;99186.84;5110896;28;20148;-77
2021/05/22 11:07:47;;;;;;;1.00;0.75;;;;;;;24.55;30.82;99175.88;5111623;28;20024;-77
2021/05/22 11:10:49;;;;;;;0.73;0.57;;;;;;;24.49;30.10;99171.09;5110797;28;20022;-77
2021/05/22 11:13:21;;;;;;;0.68;0.68;;;;;;;24.43;30.33;99181.53;5029095;28;20021;-77
2021/05/22 11:15:51;;;;;;;0.80;0.80;;;;;;;24.39;30.70;99165.06;5098663;28;20583;-77
2021/05/22 11:18:20;;;;;;;0.70;0.70;;;;;;;24.38;30.15;99157.25;5132140;28;20256;-77
2021/05/22 11:21:10;;;;;;;1.30;0.52;;;;;;;24.33;30.60;99154.81;5132555;28;20035;-77
2021/05/22 11:23:58;;;;;;;1.45;0.98;;;;;;;24.33;31.03;99154.81;5131939;28;20035;-77
2021/05/22 11:26:45;;;;;;;4.55;1.98;;;;;;;24.44;32.22;99153.81;5123584;28;20036;-77
2021/05/22 11:29:11;;;;;;;1.60;0.88;;;;;;;24.51;30.46;99139.50;5111614;28;20027;-78
2021/05/22 11:31:37;;;;;;;0.70;0.70;;;;;;;24.59;30.89;99129.44;5111074;28;20023;-77
2021/05/22 11:34:21;;;;;;;0.60;0.60;;;;;;;24.68;30.57;99138.22;5110774;28;20023;-77
2021/05/22 11:37:12;;;;;;;1.77;0.90;;;;;;;24.71;30.44;99125.75;5110593;28;20027;-77
2021/05/22 11:39:45;;;;;;;0.75;0.75;;;;;;;24.61;30.22;99136.13;5110400;28;20050;-77